createdAt,value
2019-03-28T00:01:24.106Z,8.00
2019-03-28T00:03:52.531Z,8.33
2019-03-28T00:06:21.179Z,7.63
2019-03-28T00:08:49.637Z,7.50
2019-03-28T00:11:18.063Z,8.00
2019-03-28T00:13:46.487Z,8.37
2019-03-28T00:16:15.140Z,8.40
2019-03-28T00:18:43.824Z,8.00
2019-03-28T00:21:12.562Z,8.57
2019-03-28T00:23:57.791Z,7.80
2019-03-28T00:26:30.530Z,9.30
2019-03-28T00:28:56.614Z,9.07
2019-03-28T00:31:25.051Z,9.40
2019-03-28T00:33:53.482Z,9.30
2019-03-28T00:36:22.122Z,9.07
2019-03-28T00:38:50.581Z,8.90
2019-03-28T00:41:19.005Z,8.10
2019-03-28T00:43:47.684Z,9.10
2019-03-28T00:46:16.781Z,8.67
2019-03-28T00:48:45.206Z,8.53
2019-03-28T00:51:13.635Z,7.83
2019-03-28T00:53:42.055Z,8.37
2019-03-28T00:56:10.494Z,10.00
2019-03-28T00:58:38.910Z,7.90
2019-03-28T01:01:07.557Z,9.27
2019-03-28T01:03:36.443Z,8.33
2019-03-28T01:06:05.220Z,9.20
2019-03-28T01:08:33.635Z,8.20
2019-03-28T01:11:02.066Z,7.63
2019-03-28T01:13:30.488Z,8.80
2019-03-28T01:15:59.129Z,8.90
2019-03-28T01:18:27.595Z,9.33
2019-03-28T01:20:56.270Z,9.53
2019-03-28T01:23:24.950Z,8.17
2019-03-28T01:25:53.417Z,8.80
2019-03-28T01:28:21.880Z,8.10
2019-03-28T01:30:50.307Z,8.97
2019-03-28T01:33:18.722Z,8.40
2019-03-28T01:35:47.164Z,8.63
2019-03-28T01:38:15.584Z,8.77
2019-03-28T01:40:44.006Z,7.57
2019-03-28T01:43:12.442Z,9.23
2019-03-28T01:45:40.866Z,8.40
2019-03-28T01:48:09.293Z,8.37
2019-03-28T01:50:37.965Z,8.97
2019-03-28T01:53:06.397Z,8.03
2019-03-28T01:55:34.814Z,8.50
2019-03-28T01:58:03.237Z,7.90
2019-03-28T02:00:31.926Z,9.27
2019-03-28T02:03:00.356Z,8.13
2019-03-28T02:05:28.769Z,8.57
2019-03-28T02:07:57.198Z,7.53
2019-03-28T02:10:25.848Z,7.83
2019-03-28T02:12:54.326Z,8.27
2019-03-28T02:15:22.749Z,9.10
2019-03-28T02:17:51.179Z,8.33
2019-03-28T02:20:19.850Z,9.07
2019-03-28T02:22:48.275Z,8.73
2019-03-28T02:25:17.309Z,9.10
2019-03-28T02:27:46.097Z,7.83
2019-03-28T02:30:14.802Z,8.73
2019-03-28T02:32:43.222Z,8.40
2019-03-28T02:35:11.907Z,8.97
2019-03-28T02:37:40.333Z,8.87
2019-03-28T02:40:08.907Z,9.55
2019-03-28T02:42:37.588Z,7.70
2019-03-28T02:45:07.353Z,8.90
2019-03-28T02:47:36.130Z,8.80
2019-03-28T02:50:06.305Z,9.00
2019-03-28T02:52:34.730Z,9.20
2019-03-28T02:55:03.579Z,6.93
2019-03-28T02:57:40.847Z,8.60
2019-03-28T03:00:02.444Z,9.33
2019-03-28T03:02:30.877Z,8.43
2019-03-28T03:04:59.285Z,8.53
2019-03-28T03:07:27.713Z,9.30
2019-03-28T03:09:56.392Z,8.10
2019-03-28T03:12:24.816Z,8.20
2019-03-28T03:14:53.233Z,8.30
2019-03-28T03:17:21.865Z,8.27
2019-03-28T03:19:51.405Z,8.73
2019-03-28T03:22:19.939Z,8.10
2019-03-28T03:24:48.367Z,7.40
2019-03-28T03:27:17.040Z,7.53
2019-03-28T03:29:45.758Z,7.00
2019-03-28T03:32:14.191Z,6.97
2019-03-28T03:34:42.607Z,7.50
2019-03-28T03:37:11.094Z,7.33
2019-03-28T03:39:39.824Z,7.63
2019-03-28T03:42:08.519Z,7.93
2019-03-28T03:44:36.956Z,8.35
2019-03-28T03:47:05.619Z,8.30
2019-03-28T03:49:34.041Z,8.20
2019-03-28T03:52:02.707Z,7.00
2019-03-28T03:54:31.138Z,8.20
2019-03-28T03:56:59.554Z,8.40
2019-03-28T03:59:28.200Z,8.00
2019-03-28T04:01:56.671Z,8.17
2019-03-28T04:04:25.112Z,8.27
2019-03-28T04:06:53.532Z,10.40
2019-03-28T04:09:21.975Z,11.85
2019-03-28T04:11:50.399Z,9.87
2019-03-28T04:14:19.050Z,11.87
2019-03-28T04:16:47.498Z,11.93
2019-03-28T04:19:15.936Z,12.43
2019-03-28T04:21:44.373Z,12.00
2019-03-28T04:24:12.812Z,11.23
2019-03-28T04:26:41.464Z,12.50
2019-03-28T04:29:09.930Z,12.60
2019-03-28T04:31:38.352Z,12.20
2019-03-28T04:34:08.758Z,10.83
2019-03-28T04:36:37.405Z,11.57
2019-03-28T04:39:06.287Z,13.27
2019-03-28T04:41:34.758Z,12.00
2019-03-28T04:44:03.435Z,12.77
2019-03-28T04:46:32.075Z,14.80
2019-03-28T04:49:00.560Z,13.37
2019-03-28T04:51:28.977Z,13.27
2019-03-28T04:53:57.639Z,12.23
2019-03-28T04:56:26.065Z,12.20
2019-03-28T04:58:54.482Z,11.83
2019-03-28T05:01:22.918Z,12.17
2019-03-28T05:03:51.594Z,12.47
2019-03-28T05:06:20.239Z,13.20
2019-03-28T05:08:48.700Z,12.47
2019-03-28T05:11:17.342Z,13.60
2019-03-28T05:13:45.797Z,12.03
2019-03-28T05:16:14.478Z,13.90
2019-03-28T05:18:43.149Z,11.47
2019-03-28T05:21:11.581Z,11.50
2019-03-28T05:23:40.576Z,13.83
2019-03-28T05:26:09.187Z,13.20
2019-03-28T05:28:37.605Z,13.50
2019-03-28T05:31:06.251Z,12.40
2019-03-28T05:33:34.927Z,12.47
2019-03-28T05:36:04.537Z,14.27
2019-03-28T05:38:33.153Z,13.90
2019-03-28T05:41:01.581Z,14.23
2019-03-28T05:43:29.997Z,15.10
2019-03-28T05:45:58.686Z,12.90
2019-03-28T05:48:27.107Z,14.63
2019-03-28T05:50:55.810Z,14.50
2019-03-28T05:53:24.297Z,13.03
2019-03-28T05:55:54.866Z,13.53
2019-03-28T05:58:23.294Z,13.60
2019-03-28T06:00:51.726Z,13.07
2019-03-28T06:03:20.393Z,13.77
2019-03-28T06:05:48.821Z,14.60
2019-03-28T06:08:17.397Z,13.50
2019-03-28T06:10:46.085Z,12.73
2019-03-28T06:13:14.505Z,13.43
2019-03-28T06:15:42.941Z,14.80
2019-03-28T06:18:11.357Z,13.70
2019-03-28T06:20:39.810Z,14.33
2019-03-28T06:23:08.237Z,13.77
2019-03-28T06:25:39.450Z,13.50
2019-03-28T06:28:06.886Z,12.23
2019-03-28T06:30:35.326Z,13.07
2019-03-28T06:33:03.737Z,14.10
2019-03-28T06:35:32.222Z,13.67
2019-03-28T06:38:00.630Z,13.50
2019-03-28T06:40:29.065Z,13.50
2019-03-28T06:42:57.485Z,12.63
2019-03-28T06:45:25.912Z,13.30
2019-03-28T06:47:54.366Z,13.40
2019-03-28T06:50:22.787Z,13.57
2019-03-28T06:52:51.215Z,13.40
2019-03-28T06:55:19.637Z,12.77
2019-03-28T06:57:48.057Z,11.63
2019-03-28T07:00:17.670Z,11.10
2019-03-28T07:02:46.104Z,13.53
2019-03-28T07:05:14.661Z,11.10
2019-03-28T07:07:43.094Z,11.23
2019-03-28T07:10:12.014Z,13.17
2019-03-28T07:12:40.711Z,12.07
2019-03-28T07:15:10.306Z,12.07
2019-03-28T07:17:38.733Z,13.73
2019-03-28T07:20:09.245Z,13.80
2019-03-28T07:22:37.929Z,13.23
2019-03-28T07:25:07.485Z,13.67
2019-03-28T07:27:35.909Z,12.97
2019-03-28T07:30:07.262Z,14.90
2019-03-28T07:32:35.701Z,14.47
2019-03-28T07:35:06.256Z,14.90
2019-03-28T07:37:34.725Z,15.73
2019-03-28T07:40:04.414Z,15.77
2019-03-28T07:42:32.849Z,15.23
2019-03-28T07:45:01.480Z,15.17
2019-03-28T07:47:29.955Z,14.33
2019-03-28T07:49:58.370Z,15.17
2019-03-28T07:52:27.619Z,13.80
2019-03-28T07:54:56.333Z,13.03
2019-03-28T07:57:24.778Z,14.23
2019-03-28T08:00:03.633Z,14.07
2019-03-28T08:02:23.353Z,12.33
2019-03-28T08:04:51.804Z,13.00
2019-03-28T08:07:20.258Z,12.37
2019-03-28T08:09:48.691Z,14.57
2019-03-28T08:12:22.827Z,11.73
2019-03-28T08:14:50.879Z,12.07
2019-03-28T08:17:19.591Z,12.47
2019-03-28T08:19:48.010Z,12.40
2019-03-28T08:22:16.440Z,12.47
2019-03-28T08:24:46.265Z,11.20
2019-03-28T08:27:14.842Z,11.17
2019-03-28T08:29:43.299Z,9.93
2019-03-28T08:32:13.719Z,10.70
2019-03-28T08:34:42.280Z,10.90
2019-03-28T08:37:11.151Z,8.73
2019-03-28T08:39:39.722Z,8.77
2019-03-28T08:42:08.405Z,8.50
2019-03-28T08:44:37.054Z,10.33
2019-03-28T08:47:06.326Z,10.37
2019-03-28T08:49:35.249Z,10.30
2019-03-28T08:52:03.699Z,8.97
2019-03-28T08:54:32.129Z,9.07
2019-03-28T08:57:00.539Z,9.73
2019-03-28T08:59:44.166Z,9.90
2019-03-28T09:02:30.813Z,8.73
2019-03-28T09:04:59.246Z,8.30
2019-03-28T09:07:27.677Z,9.10
2019-03-28T09:09:56.105Z,8.37
2019-03-28T09:12:24.532Z,9.03
2019-03-28T09:14:53.007Z,9.13
2019-03-28T09:17:23.829Z,8.70
2019-03-28T09:19:51.663Z,10.20
2019-03-28T09:22:20.074Z,8.60
2019-03-28T09:24:48.508Z,8.40
2019-03-28T09:27:16.923Z,7.60
2019-03-28T09:29:45.358Z,9.30
2019-03-28T09:32:13.770Z,7.80
2019-03-28T09:34:42.340Z,6.83
2019-03-28T09:37:10.746Z,7.27
2019-03-28T09:39:39.182Z,7.87
2019-03-28T09:42:07.595Z,7.30
2019-03-28T09:44:36.038Z,6.77
2019-03-28T09:47:04.454Z,6.33
2019-03-28T09:49:32.883Z,8.10
2019-03-28T09:52:01.021Z,8.57
2019-03-28T09:54:29.158Z,7.67
2019-03-28T09:56:57.315Z,7.30
2019-03-28T09:59:25.458Z,8.37
2019-03-28T10:01:53.881Z,7.30
2019-03-28T10:04:22.166Z,7.70
2019-03-28T10:06:50.312Z,8.53
2019-03-28T10:09:18.471Z,7.80
2019-03-28T10:11:46.689Z,8.27
2019-03-28T10:14:15.010Z,8.60
2019-03-28T10:16:44.034Z,7.73
2019-03-28T10:19:12.500Z,6.93
2019-03-28T10:21:40.952Z,6.20
2019-03-28T10:24:09.122Z,5.70
2019-03-28T10:26:37.672Z,5.50
2019-03-28T10:29:06.151Z,6.53
2019-03-28T10:31:34.315Z,7.47
2019-03-28T10:34:02.577Z,7.00
2019-03-28T10:36:30.731Z,6.33
2019-03-28T10:38:59.218Z,5.70
2019-03-28T10:41:28.782Z,6.00
2019-03-28T10:43:57.386Z,4.93
2019-03-28T10:46:25.634Z,4.87
2019-03-28T10:48:54.608Z,5.03
2019-03-28T10:51:22.891Z,7.17
2019-03-28T10:53:51.143Z,5.77
2019-03-28T10:56:23.969Z,4.10
2019-03-28T10:58:49.381Z,5.00
2019-03-28T11:01:32.503Z,5.30
2019-03-28T11:03:48.197Z,5.00
2019-03-28T11:06:16.728Z,4.50
2019-03-28T11:08:44.908Z,4.80
2019-03-28T11:11:13.386Z,4.80
2019-03-28T11:13:41.622Z,5.63
2019-03-28T11:16:09.895Z,4.00
2019-03-28T11:18:38.058Z,4.13
2019-03-28T11:21:06.323Z,4.37
2019-03-28T11:23:34.490Z,4.30
2019-03-28T11:26:02.687Z,3.87
2019-03-28T11:28:31.152Z,4.67
2019-03-28T11:30:59.398Z,3.80
2019-03-28T11:33:27.565Z,4.10
2019-03-28T11:35:55.751Z,3.43
2019-03-28T11:38:23.949Z,5.20
2019-03-28T11:40:52.210Z,4.17
2019-03-28T11:43:20.533Z,5.20
2019-03-28T11:45:48.793Z,4.00
2019-03-28T11:48:17.246Z,4.57
2019-03-28T11:50:45.426Z,5.23
2019-03-28T11:53:13.593Z,5.63
2019-03-28T11:55:41.777Z,5.43
2019-03-28T11:58:10.001Z,5.50
2019-03-28T12:00:38.257Z,4.47
2019-03-28T12:03:06.431Z,4.70
2019-03-28T12:05:34.674Z,4.70
2019-03-28T12:08:03.151Z,5.30
2019-03-28T12:10:31.336Z,4.30
2019-03-28T12:12:59.657Z,3.80
2019-03-28T12:15:28.141Z,5.80
2019-03-28T12:17:56.629Z,4.63
2019-03-28T12:20:25.184Z,6.77
2019-03-28T12:22:56.009Z,7.90
2019-03-28T12:25:23.555Z,6.47
2019-03-28T12:27:52.350Z,5.03
2019-03-28T12:30:20.697Z,4.80
2019-03-28T12:32:49.139Z,5.20
2019-03-28T12:35:17.581Z,5.97
2019-03-28T12:37:45.770Z,6.03
2019-03-28T12:40:14.318Z,8.10
2019-03-28T12:42:42.570Z,7.90
2019-03-28T12:45:11.518Z,9.60
2019-03-28T12:47:42.654Z,8.07
2019-03-28T12:50:11.437Z,8.70
2019-03-28T12:52:40.008Z,8.53
2019-03-28T12:55:08.308Z,6.77
2019-03-28T12:57:36.507Z,7.13
2019-03-28T13:00:06.867Z,7.80
2019-03-28T13:02:35.385Z,8.43
2019-03-28T13:05:05.045Z,9.80
2019-03-28T13:07:33.531Z,9.70
2019-03-28T13:10:02.155Z,8.90
2019-03-28T13:12:30.877Z,9.23
2019-03-28T13:14:59.048Z,8.30
2019-03-28T13:17:27.225Z,9.10
2019-03-28T13:19:55.401Z,8.57
2019-03-28T13:22:23.600Z,7.40
2019-03-28T13:24:52.029Z,7.43
2019-03-28T13:27:20.295Z,8.10
2019-03-28T13:29:48.865Z,8.43
2019-03-28T13:32:17.119Z,8.10
2019-03-28T13:34:45.575Z,7.80
2019-03-28T13:37:13.747Z,8.97
2019-03-28T13:39:42.277Z,8.70
2019-03-28T13:42:10.482Z,7.80
2019-03-28T13:44:38.670Z,7.90
2019-03-28T13:47:06.849Z,8.53
2019-03-28T13:49:35.045Z,7.63
2019-03-28T13:52:03.565Z,7.10
2019-03-28T13:54:31.813Z,7.43
2019-03-28T13:57:00.243Z,7.40
2019-03-28T13:59:28.506Z,8.60
2019-03-28T14:01:56.679Z,8.13
2019-03-28T14:04:24.872Z,8.77
2019-03-28T14:06:53.112Z,7.77
2019-03-28T14:09:23.267Z,7.27
2019-03-28T14:11:51.230Z,7.37
2019-03-28T14:14:19.414Z,7.00
2019-03-28T14:16:47.585Z,7.90
2019-03-28T14:19:15.767Z,7.13
2019-03-28T14:21:44.226Z,7.50
2019-03-28T14:24:12.764Z,8.53
2019-03-28T14:26:40.934Z,8.60
2019-03-28T14:29:09.123Z,6.87
2019-03-28T14:31:37.301Z,7.87
2019-03-28T14:34:05.526Z,7.77
2019-03-28T14:36:33.718Z,7.00
2019-03-28T14:39:01.912Z,7.70
2019-03-28T14:41:30.198Z,7.23
2019-03-28T14:43:58.511Z,7.90
2019-03-28T14:46:26.701Z,6.63
2019-03-28T14:48:55.266Z,7.90
2019-03-28T14:51:23.675Z,8.37
2019-03-28T14:53:51.916Z,7.70
2019-03-28T14:56:20.241Z,8.70
2019-03-28T14:58:49.556Z,8.00
2019-03-28T15:01:17.777Z,6.97
2019-03-28T15:03:45.972Z,7.43
2019-03-28T15:06:14.162Z,7.23
2019-03-28T15:08:43.528Z,6.40
2019-03-28T15:11:11.813Z,6.03
2019-03-28T15:13:40.603Z,6.00
2019-03-28T15:16:08.960Z,7.50
2019-03-28T15:18:37.157Z,7.50
2019-03-28T15:21:05.417Z,7.23
2019-03-28T15:23:33.668Z,7.43
2019-03-28T15:26:01.935Z,6.67
2019-03-28T15:28:30.110Z,6.73
2019-03-28T15:30:58.289Z,6.20
2019-03-28T15:33:38.726Z,6.87
2019-03-28T15:35:56.393Z,6.57
2019-03-28T15:38:24.599Z,7.07
2019-03-28T15:40:53.078Z,6.10
2019-03-28T15:43:21.248Z,6.43
2019-03-28T15:45:49.443Z,5.57
2019-03-28T15:48:19.083Z,6.00
2019-03-28T15:50:47.309Z,4.43
2019-03-28T15:53:15.586Z,5.60
2019-03-28T15:55:44.047Z,5.17
2019-03-28T15:58:22.651Z,4.60
2019-03-28T16:00:42.126Z,4.47
2019-03-28T16:03:10.302Z,5.20
2019-03-28T16:05:38.491Z,4.47
2019-03-28T16:08:06.937Z,4.57
2019-03-28T16:10:35.546Z,5.43
2019-03-28T16:13:03.717Z,4.13
2019-03-28T16:15:31.901Z,4.50
2019-03-28T16:18:00.083Z,3.63
2019-03-28T16:20:28.282Z,3.60
2019-03-28T16:22:56.815Z,3.60
2019-03-28T16:25:25.011Z,3.63
2019-03-28T16:27:53.275Z,3.80
2019-03-28T16:30:22.986Z,3.63
2019-03-28T16:32:51.536Z,3.90
2019-03-28T16:35:21.280Z,4.27
2019-03-28T16:37:51.071Z,4.87
2019-03-28T16:40:19.388Z,4.33
2019-03-28T16:42:47.822Z,3.80
2019-03-28T16:45:16.285Z,3.87
2019-03-28T16:47:44.508Z,4.60
2019-03-28T16:50:13.077Z,4.03
2019-03-28T16:52:41.300Z,4.90
2019-03-28T16:55:09.491Z,4.57
2019-03-28T16:57:37.961Z,3.60
2019-03-28T17:00:07.685Z,4.60
2019-03-28T17:02:36.080Z,4.20
2019-03-28T17:05:05.401Z,5.17
2019-03-28T17:07:33.913Z,4.87
2019-03-28T17:10:02.104Z,5.50
2019-03-28T17:12:30.289Z,4.00
2019-03-28T17:14:58.683Z,4.93
2019-03-28T17:17:26.814Z,5.87
2019-03-28T17:19:55.015Z,4.30
2019-03-28T17:22:23.148Z,4.90
2019-03-28T17:24:51.333Z,5.80
2019-03-28T17:27:19.783Z,5.70
2019-03-28T17:29:47.900Z,5.30
2019-03-28T17:32:16.332Z,5.67
2019-03-28T17:34:46.014Z,5.60
2019-03-28T17:37:14.480Z,4.93
2019-03-28T17:39:42.594Z,4.97
2019-03-28T17:42:10.729Z,6.07
2019-03-28T17:44:39.118Z,6.27
2019-03-28T17:47:07.260Z,5.90
2019-03-28T17:49:35.386Z,6.30
2019-03-28T17:52:03.520Z,6.13
2019-03-28T17:54:31.908Z,6.30
2019-03-28T17:57:00.093Z,5.13
2019-03-28T17:59:28.261Z,6.47
2019-03-28T18:01:56.457Z,6.10
2019-03-28T18:04:24.645Z,6.47
2019-03-28T18:06:52.868Z,7.27
2019-03-28T18:09:21.297Z,6.40
2019-03-28T18:11:49.474Z,5.63
2019-03-28T18:14:17.970Z,6.00
2019-03-28T18:16:46.141Z,5.60
2019-03-28T18:19:14.335Z,5.13
2019-03-28T18:21:42.516Z,6.43
2019-03-28T18:24:10.705Z,4.60
2019-03-28T18:26:39.213Z,4.67
2019-03-28T18:29:07.448Z,4.53
2019-03-28T18:31:49.445Z,3.93
2019-03-28T18:34:05.566Z,4.67
2019-03-28T18:36:33.732Z,4.40
2019-03-28T18:39:02.874Z,4.33
2019-03-28T18:41:31.249Z,4.27
2019-03-28T18:43:59.451Z,3.40
2019-03-28T18:46:27.632Z,4.10
2019-03-28T18:48:55.818Z,3.97
2019-03-28T18:51:23.991Z,3.00
2019-03-28T18:53:52.174Z,3.07
2019-03-28T18:56:21.772Z,3.27
2019-03-28T18:58:50.460Z,2.63
2019-03-28T19:01:18.705Z,2.73
2019-03-28T19:03:46.889Z,2.87
2019-03-28T19:06:16.129Z,3.30
2019-03-28T19:08:44.938Z,2.63
2019-03-28T19:11:13.190Z,2.60
2019-03-28T19:13:41.370Z,2.77
2019-03-28T19:16:09.550Z,2.27
2019-03-28T19:18:38.022Z,3.20
2019-03-28T19:21:06.564Z,2.80
2019-03-28T19:23:34.764Z,2.43
2019-03-28T19:26:03.075Z,2.50
2019-03-28T19:28:31.265Z,2.60
2019-03-28T19:30:59.437Z,2.47
2019-03-28T19:33:28.183Z,2.63
2019-03-28T19:35:56.427Z,3.00
2019-03-28T19:38:25.570Z,3.60
2019-03-28T19:40:54.058Z,2.27
2019-03-28T19:43:23.142Z,2.30
2019-03-28T19:45:51.490Z,3.10
2019-03-28T19:48:19.742Z,2.47
2019-03-28T19:50:47.925Z,3.03
2019-03-28T19:53:16.089Z,3.03
2019-03-28T19:55:44.281Z,2.60
2019-03-28T19:58:13.784Z,3.23
2019-03-28T20:00:42.155Z,2.80
2019-03-28T20:03:10.325Z,3.53
2019-03-28T20:05:47.504Z,4.07
2019-03-28T20:08:15.545Z,3.53
2019-03-28T20:10:38.409Z,3.40
2019-03-28T20:13:06.616Z,3.30
2019-03-28T20:15:34.904Z,3.27
2019-03-28T20:18:03.329Z,4.10
2019-03-28T20:20:31.542Z,3.00
2019-03-28T20:22:59.739Z,3.80
2019-03-28T20:25:27.998Z,3.80
2019-03-28T20:27:56.492Z,3.23
2019-03-28T20:30:24.768Z,2.87
2019-03-28T20:32:52.995Z,3.10
2019-03-28T20:35:21.936Z,3.57
2019-03-28T20:37:50.512Z,3.53
2019-03-28T20:40:19.736Z,3.47
2019-03-28T20:42:48.213Z,3.10
2019-03-28T20:45:16.930Z,3.73
2019-03-28T20:47:45.173Z,3.43
2019-03-28T20:50:14.703Z,2.57
2019-03-28T20:52:42.878Z,3.60
2019-03-28T20:55:11.132Z,3.80
2019-03-28T20:57:40.546Z,3.83
2019-03-28T21:00:09.141Z,3.70
2019-03-28T21:02:37.460Z,3.90
2019-03-28T21:05:06.697Z,3.70
2019-03-28T21:07:34.913Z,4.10
2019-03-28T21:10:03.963Z,3.80
2019-03-28T21:12:32.137Z,2.87
2019-03-28T21:15:00.324Z,3.77
2019-03-28T21:17:31.939Z,3.57
2019-03-28T21:19:58.724Z,3.63
2019-03-28T21:22:26.905Z,4.03
2019-03-28T21:24:55.293Z,4.10
2019-03-28T21:27:23.480Z,3.77
2019-03-28T21:29:51.917Z,3.70
2019-03-28T21:32:20.108Z,3.23
2019-03-28T21:34:48.229Z,3.60
2019-03-28T21:37:16.365Z,4.60
2019-03-28T21:39:44.502Z,3.87
2019-03-28T21:42:12.922Z,4.33
2019-03-28T21:44:41.047Z,3.83
2019-03-28T21:47:09.186Z,3.40
2019-03-28T21:49:37.576Z,4.10
2019-03-28T21:52:07.471Z,4.10
2019-03-28T21:54:35.895Z,3.77
2019-03-28T21:57:04.033Z,3.67
2019-03-28T21:59:32.162Z,4.40
2019-03-28T22:02:00.322Z,4.03
2019-03-28T22:04:28.689Z,3.70
2019-03-28T22:06:56.848Z,4.23
2019-03-28T22:09:25.060Z,4.20
2019-03-28T22:11:53.463Z,4.43
2019-03-28T22:14:21.601Z,4.47
2019-03-28T22:16:50.183Z,4.40
2019-03-28T22:19:18.321Z,4.40
2019-03-28T22:21:46.711Z,5.73
2019-03-28T22:24:14.858Z,4.97
2019-03-28T22:26:45.873Z,4.97
2019-03-28T22:29:13.109Z,4.00
2019-03-28T22:31:41.259Z,5.30
2019-03-28T22:34:09.398Z,5.43
2019-03-28T22:36:37.874Z,4.80
2019-03-28T22:39:06.680Z,5.27
2019-03-28T22:41:35.162Z,5.37
2019-03-28T22:44:03.566Z,5.47
2019-03-28T22:46:31.713Z,4.50
2019-03-28T22:49:00.120Z,6.00
2019-03-28T22:51:31.549Z,5.90
2019-03-28T22:53:58.642Z,4.40
2019-03-28T22:56:27.054Z,5.33
2019-03-28T22:58:55.194Z,4.90
2019-03-28T23:01:23.418Z,6.30
2019-03-28T23:03:51.541Z,5.70
2019-03-28T23:06:19.682Z,5.57
2019-03-28T23:08:47.821Z,5.53
2019-03-28T23:11:16.217Z,5.47
2019-03-28T23:13:44.631Z,6.00
2019-03-28T23:16:13.031Z,5.20
2019-03-28T23:18:41.193Z,5.93
2019-03-28T23:21:09.321Z,5.40
2019-03-28T23:23:37.731Z,6.37
2019-03-28T23:26:05.861Z,6.20
2019-03-28T23:28:34.006Z,5.40
2019-03-28T23:31:02.141Z,6.33
2019-03-28T23:33:30.905Z,5.57
2019-03-28T23:35:59.366Z,5.70
2019-03-28T23:38:27.770Z,6.03
2019-03-28T23:40:56.022Z,5.67
2019-03-28T23:43:24.230Z,6.20
2019-03-28T23:45:52.353Z,5.93
2019-03-28T23:48:21.162Z,5.17
2019-03-28T23:50:50.045Z,5.47
2019-03-28T23:53:18.192Z,5.70
2019-03-28T23:55:46.325Z,5.80
2019-03-28T23:58:14.473Z,4.83
